createdAt,value
2023-02-20T00:01:35.524Z,3.77
2023-02-20T00:04:22.526Z,3.70
2023-02-20T00:07:09.012Z,4.03
2023-02-20T00:09:55.361Z,3.60
2023-02-20T00:12:41.793Z,4.50
2023-02-20T00:15:28.152Z,4.30
2023-02-20T00:18:16.313Z,4.23
2023-02-20T00:21:02.929Z,4.40
2023-02-20T00:23:49.297Z,4.40
2023-02-20T00:26:35.705Z,4.23
2023-02-20T00:29:24.611Z,4.80
2023-02-20T00:32:11.048Z,4.70
2023-02-20T00:34:59.246Z,5.10
2023-02-20T00:37:47.096Z,4.93
2023-02-20T00:40:33.530Z,4.30
2023-02-20T00:43:19.896Z,4.07
2023-02-20T00:46:06.578Z,4.20
2023-02-20T00:48:53.221Z,3.87
2023-02-20T00:51:41.085Z,3.70
2023-02-20T00:54:27.825Z,4.30
2023-02-20T00:57:14.149Z,4.57
2023-02-20T01:00:00.599Z,3.70
2023-02-20T01:02:47.231Z,3.57
2023-02-20T01:05:33.592Z,3.90
2023-02-20T01:08:21.346Z,4.00
2023-02-20T01:11:08.221Z,3.57
2023-02-20T01:13:54.793Z,3.83
2023-02-20T01:16:45.839Z,3.67
2023-02-20T01:19:32.793Z,4.03
2023-02-20T01:22:19.272Z,3.40
2023-02-20T01:25:07.708Z,3.70
2023-02-20T01:27:54.009Z,3.27
2023-02-20T01:30:40.445Z,3.30
2023-02-20T01:33:26.838Z,3.43
2023-02-20T01:36:13.427Z,3.60
2023-02-20T01:39:00.098Z,4.10
2023-02-20T01:41:50.297Z,4.03
2023-02-20T01:44:39.443Z,4.23
2023-02-20T01:47:26.070Z,4.00
2023-02-20T01:50:13.934Z,4.40
2023-02-20T01:53:05.150Z,4.40
2023-02-20T01:55:55.096Z,4.47
2023-02-20T01:58:45.128Z,5.10
2023-02-20T02:01:32.199Z,4.67
2023-02-20T02:04:18.784Z,5.40
2023-02-20T02:07:05.748Z,4.97
2023-02-20T02:09:55.836Z,5.90
2023-02-20T02:12:44.106Z,5.73
2023-02-20T02:15:32.271Z,5.70
2023-02-20T02:18:36.637Z,6.33
2023-02-20T02:22:07.384Z,6.10
2023-02-20T02:25:21.756Z,6.17
2023-02-20T02:28:51.551Z,6.30
2023-02-20T02:32:07.505Z,5.77
2023-02-20T02:35:18.986Z,6.07
2023-02-20T02:38:16.436Z,6.63
2023-02-20T02:41:13.248Z,5.37
2023-02-20T02:44:05.695Z,6.00
2023-02-20T02:46:57.708Z,6.43
2023-02-20T02:49:49.795Z,5.80
2023-02-20T02:52:46.727Z,5.93
2023-02-20T02:55:35.038Z,6.37
2023-02-20T02:58:21.835Z,6.63
2023-02-20T03:01:09.593Z,6.53
2023-02-20T03:03:59.510Z,6.30
2023-02-20T03:06:49.464Z,6.50
2023-02-20T03:09:39.718Z,6.43
2023-02-20T03:12:28.589Z,7.80
2023-02-20T03:15:33.951Z,6.80
2023-02-20T03:18:30.535Z,7.37
2023-02-20T03:21:19.598Z,7.60
2023-02-20T03:24:07.020Z,7.10
2023-02-20T03:26:54.860Z,7.97
2023-02-20T03:29:43.378Z,8.20
2023-02-20T03:32:49.712Z,8.10
2023-02-20T03:35:57.488Z,8.30
2023-02-20T03:39:06.033Z,8.67
2023-02-20T03:42:11.578Z,9.33
2023-02-20T03:45:02.389Z,9.13
2023-02-20T03:47:54.013Z,8.40
2023-02-20T03:50:40.615Z,9.60
2023-02-20T03:53:27.480Z,9.80
2023-02-20T03:56:19.364Z,9.63
2023-02-20T03:59:12.413Z,10.17
2023-02-20T04:02:04.572Z,9.03
2023-02-20T04:04:54.890Z,9.67
2023-02-20T04:07:47.087Z,9.47
2023-02-20T04:10:41.358Z,8.40
2023-02-20T04:13:28.187Z,9.63
2023-02-20T04:16:15.738Z,9.07
2023-02-20T04:19:04.848Z,8.57
2023-02-20T04:21:53.746Z,9.23
2023-02-20T04:24:45.034Z,9.47
2023-02-20T04:27:32.888Z,9.30
2023-02-20T04:30:20.102Z,9.73
2023-02-20T04:33:06.587Z,10.10
2023-02-20T04:35:54.752Z,9.37
2023-02-20T04:38:41.232Z,9.13
2023-02-20T04:41:27.623Z,8.63
2023-02-20T04:44:31.219Z,8.97
2023-02-20T04:47:20.024Z,7.90
2023-02-20T04:50:07.571Z,8.00
2023-02-20T04:52:55.850Z,8.40
2023-02-20T04:55:42.174Z,8.03
2023-02-20T04:58:28.600Z,8.10
2023-02-20T05:01:14.890Z,8.63
2023-02-20T05:04:01.770Z,7.50
2023-02-20T05:06:51.562Z,8.10
2023-02-20T05:09:39.558Z,7.37
2023-02-20T05:12:26.150Z,7.47
2023-02-20T05:15:12.785Z,7.63
2023-02-20T05:17:59.302Z,8.07
2023-02-20T05:21:03.400Z,7.60
2023-02-20T05:23:50.114Z,6.83
2023-02-20T05:26:38.455Z,6.70
2023-02-20T05:29:25.391Z,6.00
2023-02-20T05:32:12.107Z,6.90
2023-02-20T05:34:59.626Z,7.13
2023-02-20T05:37:46.461Z,6.77
2023-02-20T05:40:32.764Z,6.50
2023-02-20T05:43:20.515Z,8.57
2023-02-20T05:46:07.257Z,6.93
2023-02-20T05:48:55.117Z,7.17
2023-02-20T05:51:41.734Z,7.47
2023-02-20T05:54:29.476Z,7.53
2023-02-20T05:57:17.119Z,7.50
2023-02-20T06:00:05.903Z,8.07
2023-02-20T06:02:52.569Z,7.80
2023-02-20T06:05:39.120Z,8.27
2023-02-20T06:08:25.410Z,7.37
2023-02-20T06:11:13.638Z,7.23
2023-02-20T06:14:00.692Z,7.93
2023-02-20T06:16:49.346Z,8.63
2023-02-20T06:19:36.049Z,8.20
2023-02-20T06:22:22.519Z,9.20
2023-02-20T06:25:09.580Z,8.53
2023-02-20T06:27:55.773Z,9.70
2023-02-20T06:30:42.186Z,9.07
2023-02-20T06:33:30.052Z,9.90
2023-02-20T06:36:22.351Z,10.53
2023-02-20T06:39:10.446Z,10.73
2023-02-20T06:41:57.166Z,11.13
2023-02-20T06:44:43.911Z,11.57
2023-02-20T06:47:30.346Z,10.80
2023-02-20T06:50:18.377Z,12.50
2023-02-20T06:53:05.338Z,12.57
2023-02-20T06:55:52.102Z,12.60
2023-02-20T06:58:38.354Z,13.57
2023-02-20T07:01:27.142Z,13.03
2023-02-20T07:04:18.213Z,14.93
2023-02-20T07:07:05.920Z,14.03
2023-02-20T07:09:52.400Z,14.23
2023-02-20T07:12:39.717Z,14.07
2023-02-20T07:15:26.163Z,15.00
2023-02-20T07:18:12.582Z,13.87
2023-02-20T07:20:59.102Z,15.73
2023-02-20T07:23:47.138Z,14.73
2023-02-20T07:26:35.318Z,14.80
2023-02-20T07:29:21.790Z,16.43
2023-02-20T07:32:09.069Z,15.30
2023-02-20T07:35:04.387Z,14.90
2023-02-20T07:37:52.263Z,14.27
2023-02-20T07:40:40.397Z,14.20
2023-02-20T07:43:27.014Z,15.40
2023-02-20T07:46:13.654Z,15.77
2023-02-20T07:49:00.690Z,14.17
2023-02-20T07:51:47.253Z,13.43
2023-02-20T07:54:33.597Z,12.67
2023-02-20T07:57:21.633Z,13.57
2023-02-20T08:00:09.463Z,12.67
2023-02-20T08:02:55.948Z,12.53
2023-02-20T08:05:49.231Z,11.80
2023-02-20T08:08:36.606Z,11.53
2023-02-20T08:11:24.345Z,10.93
2023-02-20T08:14:14.185Z,10.67
2023-02-20T08:17:00.956Z,11.23
2023-02-20T08:19:47.580Z,10.43
2023-02-20T08:22:41.440Z,10.50
2023-02-20T08:25:28.460Z,10.67
2023-02-20T08:28:15.241Z,11.83
2023-02-20T08:31:02.992Z,9.17
2023-02-20T08:33:49.362Z,9.97
2023-02-20T08:36:35.914Z,10.40
2023-02-20T08:39:22.178Z,9.20
2023-02-20T08:42:08.754Z,10.90
2023-02-20T08:44:55.406Z,9.70
2023-02-20T08:47:43.132Z,10.97
2023-02-20T08:50:29.982Z,10.03
2023-02-20T08:53:16.817Z,9.97
2023-02-20T08:56:04.730Z,10.70
2023-02-20T08:58:52.082Z,11.27
2023-02-20T09:01:41.876Z,11.13
2023-02-20T09:04:29.607Z,10.20
2023-02-20T09:07:16.143Z,10.70
2023-02-20T09:10:03.008Z,10.57
2023-02-20T09:12:49.853Z,9.57
2023-02-20T09:15:39.812Z,10.37
2023-02-20T09:18:26.416Z,11.07
2023-02-20T09:21:15.862Z,8.93
2023-02-20T09:24:02.321Z,10.73
2023-02-20T09:26:48.745Z,10.77
2023-02-20T09:29:38.995Z,10.57
2023-02-20T09:32:25.965Z,9.30
2023-02-20T09:35:18.246Z,11.27
2023-02-20T09:38:07.769Z,10.97
2023-02-20T09:40:57.908Z,11.03
2023-02-20T09:43:51.333Z,12.40
2023-02-20T09:46:38.229Z,11.03
2023-02-20T09:49:34.013Z,11.63
2023-02-20T09:52:20.754Z,11.37
2023-02-20T09:55:13.983Z,11.23
2023-02-20T09:58:00.837Z,11.20
2023-02-20T10:00:48.597Z,11.73
2023-02-20T10:03:41.049Z,11.30
2023-02-20T10:06:29.871Z,11.87
2023-02-20T10:09:18.081Z,11.17
2023-02-20T10:12:18.364Z,9.73
2023-02-20T10:15:20.775Z,11.63
2023-02-20T10:18:23.057Z,11.60
2023-02-20T10:21:16.981Z,12.13
2023-02-20T10:24:15.026Z,11.87
2023-02-20T10:27:13.880Z,11.13
2023-02-20T10:30:05.503Z,11.50
2023-02-20T10:32:57.572Z,12.60
2023-02-20T10:35:48.737Z,13.37
2023-02-20T10:38:39.615Z,15.60
2023-02-20T10:41:30.247Z,12.07
2023-02-20T10:44:22.416Z,11.00
2023-02-20T10:47:17.615Z,12.87
2023-02-20T10:50:08.705Z,12.30
2023-02-20T10:53:00.740Z,11.53
2023-02-20T10:55:55.294Z,10.83
2023-02-20T10:58:47.206Z,11.53
2023-02-20T11:01:36.471Z,12.27
2023-02-20T11:04:28.001Z,13.30
2023-02-20T11:07:18.257Z,12.50
2023-02-20T11:10:05.098Z,12.17
2023-02-20T11:12:53.054Z,12.93
2023-02-20T11:15:39.722Z,11.47
2023-02-20T11:18:31.864Z,12.60
2023-02-20T11:21:35.832Z,13.23
2023-02-20T11:24:30.205Z,13.07
2023-02-20T11:27:20.246Z,11.93
2023-02-20T11:30:25.541Z,12.57
2023-02-20T11:33:16.727Z,12.30
2023-02-20T11:36:19.144Z,12.87
2023-02-20T11:39:20.379Z,13.27
2023-02-20T11:42:12.612Z,13.57
2023-02-20T11:45:14.604Z,14.37
2023-02-20T11:48:10.078Z,14.00
2023-02-20T11:50:56.967Z,12.20
2023-02-20T11:53:44.388Z,13.23
2023-02-20T11:56:32.122Z,13.63
2023-02-20T11:59:31.259Z,14.43
2023-02-20T12:02:27.696Z,13.40
2023-02-20T12:05:16.511Z,13.67
2023-02-20T12:08:03.431Z,13.87
2023-02-20T12:10:53.193Z,13.50
2023-02-20T12:13:42.972Z,13.23
2023-02-20T12:17:03.900Z,13.47
2023-02-20T12:19:58.042Z,13.47
2023-02-20T12:22:52.341Z,13.87
2023-02-20T12:25:52.055Z,16.60
2023-02-20T12:28:48.318Z,15.40
2023-02-20T12:31:47.780Z,13.83
2023-02-20T12:34:59.614Z,12.97
2023-02-20T12:37:54.070Z,13.53
2023-02-20T12:41:04.427Z,13.00
2023-02-20T12:44:13.403Z,14.70
2023-02-20T12:47:12.694Z,13.37
2023-02-20T12:50:24.210Z,12.37
2023-02-20T12:53:29.654Z,18.35
2023-02-20T12:56:30.920Z,12.93
2023-02-20T12:59:30.110Z,12.07
2023-02-20T13:02:39.428Z,13.17
2023-02-20T13:05:29.927Z,12.53
2023-02-20T13:08:23.531Z,10.40
2023-02-20T13:11:17.336Z,11.43
2023-02-20T13:14:18.606Z,10.13
2023-02-20T13:17:20.496Z,11.80
2023-02-20T13:20:18.902Z,11.20
2023-02-20T13:23:07.348Z,11.73
2023-02-20T13:25:55.015Z,14.27
2023-02-20T13:28:45.747Z,10.37
2023-02-20T13:31:47.636Z,10.13
2023-02-20T13:34:38.759Z,9.50
2023-02-20T13:37:57.248Z,10.57
2023-02-20T13:40:45.636Z,9.43
2023-02-20T13:43:34.014Z,9.07
2023-02-20T13:46:25.664Z,8.50
2023-02-20T13:49:12.097Z,8.70
2023-02-20T13:52:00.157Z,8.60
2023-02-20T13:54:46.823Z,9.40
2023-02-20T13:57:34.673Z,8.87
2023-02-20T14:00:42.278Z,10.27
2023-02-20T14:03:31.146Z,8.80
2023-02-20T14:06:19.264Z,9.20
2023-02-20T14:09:15.850Z,8.47
2023-02-20T14:12:13.615Z,8.50
2023-02-20T14:15:03.922Z,8.70
2023-02-20T14:17:52.545Z,7.93
2023-02-20T14:20:40.419Z,9.37
2023-02-20T14:23:29.448Z,9.60
2023-02-20T14:26:26.135Z,8.83
2023-02-20T14:29:22.632Z,8.40
2023-02-20T14:32:15.109Z,9.30
2023-02-20T14:35:09.634Z,8.60
2023-02-20T14:38:02.371Z,8.27
2023-02-20T14:40:50.963Z,8.33
2023-02-20T14:43:39.342Z,7.93
2023-02-20T14:46:28.106Z,8.03
2023-02-20T14:49:16.767Z,8.10
2023-02-20T14:52:15.328Z,7.73
2023-02-20T14:55:03.310Z,7.70
2023-02-20T14:57:50.557Z,7.90
2023-02-20T15:00:40.041Z,7.03
2023-02-20T15:03:31.057Z,6.53
2023-02-20T15:06:18.123Z,7.20
2023-02-20T15:09:20.927Z,7.30
2023-02-20T15:12:09.616Z,6.97
2023-02-20T15:15:01.167Z,5.50
2023-02-20T15:17:50.055Z,5.87
2023-02-20T15:20:39.370Z,6.33
2023-02-20T15:23:30.475Z,6.90
2023-02-20T15:26:32.400Z,7.40
2023-02-20T15:29:24.586Z,7.13
2023-02-20T15:32:21.976Z,7.00
2023-02-20T15:35:17.711Z,7.17
2023-02-20T15:38:08.887Z,5.67
2023-02-20T15:40:58.262Z,6.33
2023-02-20T15:43:49.762Z,6.77
2023-02-20T15:46:38.434Z,7.13
2023-02-20T15:49:25.032Z,7.43
2023-02-20T15:52:18.590Z,6.63
2023-02-20T15:55:05.872Z,6.93
2023-02-20T15:57:56.830Z,5.83
2023-02-20T16:00:43.693Z,6.40
2023-02-20T16:03:41.711Z,6.67
2023-02-20T16:06:36.802Z,6.67
2023-02-20T16:09:25.006Z,7.23
2023-02-20T16:12:17.477Z,5.97
2023-02-20T16:15:04.540Z,6.67
2023-02-20T16:17:52.041Z,6.63
2023-02-20T16:20:38.586Z,6.10
2023-02-20T16:23:25.462Z,5.73
2023-02-20T16:26:13.819Z,5.97
2023-02-20T16:29:02.962Z,5.80
2023-02-20T16:32:19.741Z,5.70
2023-02-20T16:35:06.981Z,5.23
2023-02-20T16:37:53.710Z,5.40
2023-02-20T16:40:40.482Z,5.73
2023-02-20T16:43:28.476Z,5.47
2023-02-20T16:46:17.033Z,4.93
2023-02-20T16:49:04.788Z,5.23
2023-02-20T16:51:59.206Z,5.47
2023-02-20T16:54:47.461Z,5.30
2023-02-20T16:57:33.813Z,5.27
2023-02-20T17:00:23.441Z,5.40
2023-02-20T17:03:10.601Z,5.13
2023-02-20T17:05:59.770Z,4.80
2023-02-20T17:08:46.239Z,5.63
2023-02-20T17:11:32.649Z,5.67
2023-02-20T17:14:19.451Z,5.70
2023-02-20T17:17:08.223Z,5.53
2023-02-20T17:19:57.080Z,4.90
2023-02-20T17:22:45.384Z,5.80
2023-02-20T17:28:00.295Z,5.37
2023-02-20T17:30:49.272Z,4.60
2023-02-20T17:33:37.469Z,5.60
2023-02-20T17:36:24.097Z,5.50
2023-02-20T17:39:10.387Z,4.77
2023-02-20T17:41:58.339Z,5.47
2023-02-20T17:44:44.629Z,6.13
2023-02-20T17:47:31.055Z,5.47
2023-02-20T17:50:21.006Z,8.53
2023-02-20T17:53:09.159Z,6.80
2023-02-20T17:55:55.827Z,6.23
2023-02-20T17:58:42.428Z,7.13
2023-02-20T18:01:29.114Z,6.00
2023-02-20T18:04:15.561Z,7.03
2023-02-20T18:07:03.548Z,6.90
2023-02-20T18:09:50.495Z,6.17
2023-02-20T18:12:36.773Z,7.93
2023-02-20T18:15:23.136Z,8.07
2023-02-20T18:18:10.534Z,6.77
2023-02-20T18:20:57.850Z,7.13
2023-02-20T18:23:46.101Z,7.03
2023-02-20T18:26:32.798Z,7.37
2023-02-20T18:29:20.882Z,7.07
2023-02-20T18:32:07.465Z,7.30
2023-02-20T18:34:54.349Z,8.17
2023-02-20T18:37:41.241Z,8.33
2023-02-20T18:40:29.198Z,7.77
2023-02-20T18:43:15.945Z,8.37
2023-02-20T18:46:02.655Z,7.93
2023-02-20T18:48:49.600Z,8.33
2023-02-20T18:51:37.980Z,8.83
2023-02-20T18:54:29.990Z,8.67
2023-02-20T18:57:18.645Z,8.90
2023-02-20T19:00:05.848Z,9.30
2023-02-20T19:02:54.673Z,9.27
2023-02-20T19:05:41.698Z,9.90
2023-02-20T19:08:28.130Z,10.03
2023-02-20T19:11:14.866Z,10.17
2023-02-20T19:14:02.923Z,11.47
2023-02-20T19:16:50.874Z,11.20
2023-02-20T19:19:37.787Z,10.90
2023-02-20T19:22:24.320Z,10.30
2023-02-20T19:25:11.046Z,10.50
2023-02-20T19:27:57.537Z,10.90
2023-02-20T19:30:46.001Z,11.00
2023-02-20T19:33:32.266Z,11.90
2023-02-20T19:36:18.818Z,11.60
2023-02-20T19:39:05.801Z,10.80
2023-02-20T19:41:52.630Z,10.70
2023-02-20T19:44:39.657Z,11.77
2023-02-20T19:47:28.541Z,12.17
2023-02-20T19:50:16.238Z,11.50
2023-02-20T19:53:03.045Z,11.97
2023-02-20T19:55:51.540Z,10.80
2023-02-20T19:58:40.274Z,11.43
2023-02-20T20:01:26.935Z,12.37
2023-02-20T20:04:15.176Z,12.00
2023-02-20T20:07:03.623Z,10.87
2023-02-20T20:09:50.691Z,11.40
2023-02-20T20:12:49.032Z,12.07
2023-02-20T20:15:37.024Z,11.83
2023-02-20T20:18:23.728Z,13.17
2023-02-20T20:21:11.709Z,12.73
2023-02-20T20:23:59.043Z,14.27
2023-02-20T20:26:47.259Z,15.90
2023-02-20T20:29:33.868Z,13.77
2023-02-20T20:32:21.926Z,13.70
2023-02-20T20:35:09.128Z,13.87
2023-02-20T20:37:57.934Z,13.27
2023-02-20T20:40:44.838Z,13.53
2023-02-20T20:43:31.267Z,13.63
2023-02-20T20:46:19.271Z,17.13
2023-02-20T20:49:06.078Z,14.27
2023-02-20T20:51:52.483Z,13.80
2023-02-20T20:54:40.445Z,14.63
2023-02-20T20:57:30.047Z,12.17
2023-02-20T21:00:22.477Z,13.47
2023-02-20T21:03:10.935Z,14.07
2023-02-20T21:05:57.519Z,14.07
2023-02-20T21:08:43.943Z,13.97
2023-02-20T21:11:34.328Z,14.57
2023-02-20T21:14:21.920Z,14.70
2023-02-20T21:17:09.073Z,13.53
2023-02-20T21:19:55.548Z,13.43
2023-02-20T21:22:41.739Z,15.00
2023-02-20T21:25:29.824Z,16.00
2023-02-20T21:28:17.869Z,14.43
2023-02-20T21:31:05.060Z,14.87
2023-02-20T21:33:52.115Z,15.23
2023-02-20T21:36:38.732Z,15.03
2023-02-20T21:39:25.561Z,15.00
2023-02-20T21:42:30.430Z,15.20
2023-02-20T21:45:19.181Z,15.93
2023-02-20T21:48:06.377Z,15.47
2023-02-20T21:50:52.847Z,14.90
2023-02-20T21:53:40.347Z,15.80
2023-02-20T21:56:27.860Z,16.17
2023-02-20T21:59:13.638Z,15.67
2023-02-20T22:02:00.681Z,15.63
2023-02-20T22:04:46.280Z,16.30
2023-02-20T22:07:50.152Z,16.47
2023-02-20T22:10:54.070Z,16.50
2023-02-20T22:13:58.182Z,15.90
2023-02-20T22:17:02.200Z,16.80
2023-02-20T22:20:08.085Z,16.17
2023-02-20T22:23:12.119Z,16.43
2023-02-20T22:26:16.186Z,16.43
2023-02-20T22:29:20.872Z,17.33
2023-02-20T22:32:25.190Z,15.23
2023-02-20T22:35:32.782Z,16.37
2023-02-20T22:38:36.746Z,14.90
2023-02-20T22:41:41.359Z,15.30
2023-02-20T22:44:45.324Z,15.87
2023-02-20T22:47:49.691Z,15.00
2023-02-20T22:50:55.123Z,16.47
2023-02-20T22:53:59.067Z,16.60
2023-02-20T22:57:03.153Z,15.27
2023-02-20T23:00:07.044Z,16.13
2023-02-20T23:03:11.139Z,17.53
2023-02-20T23:06:19.070Z,15.57
2023-02-20T23:09:28.801Z,15.97
2023-02-20T23:12:33.431Z,17.07
2023-02-20T23:15:37.511Z,17.40
2023-02-20T23:18:41.664Z,17.10
2023-02-20T23:21:47.280Z,16.70
2023-02-20T23:24:51.253Z,17.57
2023-02-20T23:27:55.218Z,17.13
2023-02-20T23:30:59.165Z,17.40
2023-02-20T23:34:03.050Z,16.33
2023-02-20T23:37:10.274Z,18.53
2023-02-20T23:40:15.908Z,17.13
2023-02-20T23:43:24.165Z,17.87
2023-02-20T23:46:28.089Z,16.80
2023-02-20T23:49:32.027Z,16.77
2023-02-20T23:52:37.540Z,17.20
2023-02-20T23:55:41.710Z,17.33
2023-02-20T23:58:48.301Z,17.30
